sensor_id;sensor_type;location;lat;lon;timestamp;pressure;altitude;pressure_sealevel;temperature;humidity
62462;BME280;48511;38.664;-9.202;2022-08-27T00:01:23;100189.31;;;17.47;97.46
62462;BME280;48511;38.664;-9.202;2022-08-27T00:03:24;100179.47;;;17.72;96.40
62462;BME280;48511;38.664;-9.202;2022-08-27T00:05:25;100193.00;;;17.56;97.00
62462;BME280;48511;38.664;-9.202;2022-08-27T00:07:26;100185.00;;;17.69;96.19
62462;BME280;48511;38.664;-9.202;2022-08-27T00:09:26;100184.53;;;17.52;97.13
62462;BME280;48511;38.664;-9.202;2022-08-27T00:11:27;100187.75;;;17.45;97.36
62462;BME280;48511;38.664;-9.202;2022-08-27T00:13:29;100183.78;;;17.50;97.56
62462;BME280;48511;38.664;-9.202;2022-08-27T00:15:30;100181.16;;;17.73;96.48
62462;BME280;48511;38.664;-9.202;2022-08-27T00:17:34;100180.69;;;17.57;96.47
62462;BME280;48511;38.664;-9.202;2022-08-27T00:19:35;100180.34;;;17.50;96.89
62462;BME280;48511;38.664;-9.202;2022-08-27T00:21:36;100172.66;;;17.47;97.46
62462;BME280;48511;38.664;-9.202;2022-08-27T00:23:38;100176.63;;;17.41;97.75
62462;BME280;48511;38.664;-9.202;2022-08-27T00:25:39;100170.63;;;17.50;97.85
62462;BME280;48511;38.664;-9.202;2022-08-27T00:27:40;100163.69;;;17.49;97.71
62462;BME280;48511;38.664;-9.202;2022-08-27T00:29:41;100166.56;;;17.58;96.67
62462;BME280;48511;38.664;-9.202;2022-08-27T00:31:41;100158.28;;;17.62;96.16
62462;BME280;48511;38.664;-9.202;2022-08-27T00:33:42;100163.78;;;17.59;96.99
62462;BME280;48511;38.664;-9.202;2022-08-27T00:35:43;100157.31;;;17.52;96.75
62462;BME280;48511;38.664;-9.202;2022-08-27T00:37:44;100160.34;;;17.47;97.65
62462;BME280;48511;38.664;-9.202;2022-08-27T00:39:45;100142.13;;;17.55;96.92
62462;BME280;48511;38.664;-9.202;2022-08-27T00:41:46;100146.41;;;17.68;96.37
62462;BME280;48511;38.664;-9.202;2022-08-27T00:45:48;100143.34;;;17.40;97.54
62462;BME280;48511;38.664;-9.202;2022-08-27T00:47:54;100137.09;;;17.52;96.85
62462;BME280;48511;38.664;-9.202;2022-08-27T00:50:01;100132.31;;;17.46;97.15
62462;BME280;48511;38.664;-9.202;2022-08-27T00:52:25;100129.69;;;17.58;96.85
62462;BME280;48511;38.664;-9.202;2022-08-27T00:54:27;100136.38;;;17.50;96.47
62462;BME280;48511;38.664;-9.202;2022-08-27T00:56:32;100133.03;;;17.48;96.28
62462;BME280;48511;38.664;-9.202;2022-08-27T00:58:40;100134.34;;;17.54;95.99
62462;BME280;48511;38.664;-9.202;2022-08-27T01:00:43;100133.88;;;17.60;95.45
62462;BME280;48511;38.664;-9.202;2022-08-27T01:02:45;100128.59;;;17.60;95.59
62462;BME280;48511;38.664;-9.202;2022-08-27T01:05:05;100131.44;;;17.57;95.74
62462;BME280;48511;38.664;-9.202;2022-08-27T01:07:09;100123.69;;;17.44;96.76
62462;BME280;48511;38.664;-9.202;2022-08-27T01:09:12;100127.53;;;17.40;97.22
62462;BME280;48511;38.664;-9.202;2022-08-27T01:11:15;100131.72;;;17.54;96.77
62462;BME280;48511;38.664;-9.202;2022-08-27T01:13:19;100122.00;;;17.43;96.59
62462;BME280;48511;38.664;-9.202;2022-08-27T01:15:23;100124.66;;;17.43;96.75
62462;BME280;48511;38.664;-9.202;2022-08-27T01:17:25;100123.34;;;17.37;96.78
62462;BME280;48511;38.664;-9.202;2022-08-27T01:19:34;100116.06;;;17.30;97.46
62462;BME280;48511;38.664;-9.202;2022-08-27T01:21:40;100117.88;;;17.29;97.36
62462;BME280;48511;38.664;-9.202;2022-08-27T01:26:07;100113.19;;;17.10;98.17
62462;BME280;48511;38.664;-9.202;2022-08-27T01:28:10;100116.31;;;17.04;98.46
62462;BME280;48511;38.664;-9.202;2022-08-27T01:30:15;100116.66;;;17.11;98.63
62462;BME280;48511;38.664;-9.202;2022-08-27T01:32:21;100113.41;;;17.07;98.84
62462;BME280;48511;38.664;-9.202;2022-08-27T01:34:22;100111.03;;;17.04;98.86
62462;BME280;48511;38.664;-9.202;2022-08-27T01:36:23;100110.91;;;17.05;99.28
62462;BME280;48511;38.664;-9.202;2022-08-27T01:38:24;100103.13;;;16.93;99.94
62462;BME280;48511;38.664;-9.202;2022-08-27T01:40:26;100100.63;;;16.91;100.00
62462;BME280;48511;38.664;-9.202;2022-08-27T01:44:47;100094.97;;;16.84;100.00
62462;BME280;48511;38.664;-9.202;2022-08-27T01:46:48;100093.50;;;16.80;100.00
62462;BME280;48511;38.664;-9.202;2022-08-27T01:48:49;100090.78;;;16.82;100.00
62462;BME280;48511;38.664;-9.202;2022-08-27T01:50:50;100089.31;;;16.78;100.00
62462;BME280;48511;38.664;-9.202;2022-08-27T01:52:51;100084.19;;;16.76;100.00
62462;BME280;48511;38.664;-9.202;2022-08-27T01:54:53;100083.25;;;16.77;100.00
62462;BME280;48511;38.664;-9.202;2022-08-27T01:56:53;100085.88;;;16.88;100.00
62462;BME280;48511;38.664;-9.202;2022-08-27T01:58:54;100091.19;;;17.00;100.00
62462;BME280;48511;38.664;-9.202;2022-08-27T02:00:58;100091.53;;;16.95;100.00
62462;BME280;48511;38.664;-9.202;2022-08-27T02:03:00;100079.66;;;16.89;100.00
62462;BME280;48511;38.664;-9.202;2022-08-27T02:05:00;100077.50;;;16.83;100.00
62462;BME280;48511;38.664;-9.202;2022-08-27T02:07:01;100083.72;;;16.82;100.00
62462;BME280;48511;38.664;-9.202;2022-08-27T02:09:02;100074.28;;;16.80;100.00
62462;BME280;48511;38.664;-9.202;2022-08-27T02:11:04;100080.59;;;16.77;100.00
62462;BME280;48511;38.664;-9.202;2022-08-27T02:13:05;100080.59;;;16.77;100.00
62462;BME280;48511;38.664;-9.202;2022-08-27T02:15:07;100079.06;;;16.75;100.00
62462;BME280;48511;38.664;-9.202;2022-08-27T02:17:09;100076.28;;;16.76;100.00
62462;BME280;48511;38.664;-9.202;2022-08-27T02:19:11;100070.81;;;16.79;100.00
62462;BME280;48511;38.664;-9.202;2022-08-27T02:21:12;100085.88;;;16.88;100.00
62462;BME280;48511;38.664;-9.202;2022-08-27T02:23:15;100080.41;;;16.92;100.00
62462;BME280;48511;38.664;-9.202;2022-08-27T02:25:18;100079.69;;;17.01;100.00
62462;BME280;48511;38.664;-9.202;2022-08-27T02:27:20;100093.81;;;17.00;100.00
62462;BME280;48511;38.664;-9.202;2022-08-27T02:29:22;100085.78;;;17.01;100.00
62462;BME280;48511;38.664;-9.202;2022-08-27T02:31:24;100078.03;;;17.00;100.00
62462;BME280;48511;38.664;-9.202;2022-08-27T02:33:24;100068.66;;;16.96;100.00
62462;BME280;48511;38.664;-9.202;2022-08-27T02:35:26;100063.66;;;17.04;100.00
62462;BME280;48511;38.664;-9.202;2022-08-27T02:37:27;100070.47;;;17.07;100.00
62462;BME280;48511;38.664;-9.202;2022-08-27T02:39:28;100060.28;;;17.02;100.00
62462;BME280;48511;38.664;-9.202;2022-08-27T02:41:29;100066.03;;;17.07;100.00
62462;BME280;48511;38.664;-9.202;2022-08-27T02:43:30;100064.97;;;17.10;100.00
62462;BME280;48511;38.664;-9.202;2022-08-27T02:45:31;100060.16;;;17.15;100.00
62462;BME280;48511;38.664;-9.202;2022-08-27T02:47:33;100059.47;;;17.13;100.00
62462;BME280;48511;38.664;-9.202;2022-08-27T02:49:34;100068.19;;;17.13;100.00
62462;BME280;48511;38.664;-9.202;2022-08-27T02:51:36;100068.06;;;17.15;100.00
62462;BME280;48511;38.664;-9.202;2022-08-27T02:53:36;100064.81;;;17.22;100.00
62462;BME280;48511;38.664;-9.202;2022-08-27T02:55:37;100070.22;;;17.21;100.00
62462;BME280;48511;38.664;-9.202;2022-08-27T02:57:38;100068.78;;;17.17;100.00
62462;BME280;48511;38.664;-9.202;2022-08-27T02:59:39;100065.41;;;17.26;100.00
62462;BME280;48511;38.664;-9.202;2022-08-27T03:01:39;100062.91;;;17.36;100.00
62462;BME280;48511;38.664;-9.202;2022-08-27T03:03:40;100063.84;;;17.46;100.00
62462;BME280;48511;38.664;-9.202;2022-08-27T03:05:41;100077.97;;;17.45;100.00
62462;BME280;48511;38.664;-9.202;2022-08-27T03:07:43;100069.00;;;17.36;100.00
62462;BME280;48511;38.664;-9.202;2022-08-27T03:09:44;100077.03;;;17.35;100.00
62462;BME280;48511;38.664;-9.202;2022-08-27T03:11:45;100073.19;;;17.39;100.00
62462;BME280;48511;38.664;-9.202;2022-08-27T03:13:46;100071.00;;;17.44;100.00
62462;BME280;48511;38.664;-9.202;2022-08-27T03:15:47;100068.41;;;17.33;100.00
62462;BME280;48511;38.664;-9.202;2022-08-27T03:17:48;100064.81;;;17.22;100.00
62462;BME280;48511;38.664;-9.202;2022-08-27T03:20:07;100060.97;;;17.38;100.00
62462;BME280;48511;38.664;-9.202;2022-08-27T03:22:10;100059.19;;;17.27;100.00
62462;BME280;48511;38.664;-9.202;2022-08-27T03:24:12;100065.19;;;17.29;100.00
62462;BME280;48511;38.664;-9.202;2022-08-27T03:26:13;100061.97;;;17.26;100.00
62462;BME280;48511;38.664;-9.202;2022-08-27T03:28:14;100065.75;;;17.33;100.00
62462;BME280;48511;38.664;-9.202;2022-08-27T03:30:18;100062.81;;;17.59;100.00
62462;BME280;48511;38.664;-9.202;2022-08-27T03:32:20;100050.44;;;17.38;100.00
62462;BME280;48511;38.664;-9.202;2022-08-27T03:34:20;100055.63;;;17.28;100.00
62462;BME280;48511;38.664;-9.202;2022-08-27T03:36:21;100050.91;;;17.43;100.00
62462;BME280;48511;38.664;-9.202;2022-08-27T03:38:22;100045.69;;;17.32;100.00
62462;BME280;48511;38.664;-9.202;2022-08-27T03:40:23;100047.59;;;17.30;100.00
62462;BME280;48511;38.664;-9.202;2022-08-27T03:42:24;100042.81;;;17.24;100.00
62462;BME280;48511;38.664;-9.202;2022-08-27T03:44:25;100042.97;;;17.54;100.00
62462;BME280;48511;38.664;-9.202;2022-08-27T03:46:26;100043.91;;;17.53;100.00
62462;BME280;48511;38.664;-9.202;2022-08-27T03:48:30;100043.72;;;17.45;100.00
62462;BME280;48511;38.664;-9.202;2022-08-27T03:50:31;100040.75;;;17.27;100.00
62462;BME280;48511;38.664;-9.202;2022-08-27T03:52:33;100035.31;;;17.51;100.00
62462;BME280;48511;38.664;-9.202;2022-08-27T03:54:36;100044.66;;;17.55;100.00
62462;BME280;48511;38.664;-9.202;2022-08-27T03:56:37;100033.31;;;17.44;99.80
62462;BME280;48511;38.664;-9.202;2022-08-27T03:58:40;100032.75;;;17.29;100.00
62462;BME280;48511;38.664;-9.202;2022-08-27T04:00:41;100044.94;;;17.30;100.00
62462;BME280;48511;38.664;-9.202;2022-08-27T04:02:42;100037.53;;;17.24;100.00
62462;BME280;48511;38.664;-9.202;2022-08-27T04:04:43;100039.22;;;17.13;100.00
62462;BME280;48511;38.664;-9.202;2022-08-27T04:06:44;100033.00;;;17.26;100.00
62462;BME280;48511;38.664;-9.202;2022-08-27T04:08:45;100035.50;;;17.27;100.00
62462;BME280;48511;38.664;-9.202;2022-08-27T04:10:45;100030.81;;;17.42;100.00
62462;BME280;48511;38.664;-9.202;2022-08-27T04:12:46;100028.69;;;17.25;100.00
62462;BME280;48511;38.664;-9.202;2022-08-27T04:14:47;100038.50;;;17.22;100.00
62462;BME280;48511;38.664;-9.202;2022-08-27T04:16:48;100038.75;;;17.19;100.00
62462;BME280;48511;38.664;-9.202;2022-08-27T04:18:48;100037.78;;;17.20;100.00
62462;BME280;48511;38.664;-9.202;2022-08-27T04:20:49;100037.31;;;17.15;100.00
62462;BME280;48511;38.664;-9.202;2022-08-27T04:22:51;100031.56;;;17.21;100.00
62462;BME280;48511;38.664;-9.202;2022-08-27T04:24:53;100035.50;;;17.16;100.00
62462;BME280;48511;38.664;-9.202;2022-08-27T04:26:53;100029.91;;;17.20;100.00
62462;BME280;48511;38.664;-9.202;2022-08-27T04:28:56;100027.25;;;17.20;100.00
62462;BME280;48511;38.664;-9.202;2022-08-27T04:30:56;100037.88;;;17.30;100.00
62462;BME280;48511;38.664;-9.202;2022-08-27T04:32:58;100032.03;;;17.27;100.00
62462;BME280;48511;38.664;-9.202;2022-08-27T04:34:59;100026.03;;;17.36;100.00
62462;BME280;48511;38.664;-9.202;2022-08-27T04:37:00;100025.91;;;17.26;100.00
62462;BME280;48511;38.664;-9.202;2022-08-27T04:39:01;100027.00;;;17.24;100.00
62462;BME280;48511;38.664;-9.202;2022-08-27T04:41:06;100026.53;;;17.18;100.00
62462;BME280;48511;38.664;-9.202;2022-08-27T04:43:20;100035.50;;;17.16;100.00
62462;BME280;48511;38.664;-9.202;2022-08-27T04:45:22;100030.03;;;17.19;100.00
62462;BME280;48511;38.664;-9.202;2022-08-27T04:47:22;100030.84;;;17.19;100.00
62462;BME280;48511;38.664;-9.202;2022-08-27T04:49:24;100023.09;;;17.18;100.00
62462;BME280;48511;38.664;-9.202;2022-08-27T04:51:26;100028.22;;;17.19;100.00
62462;BME280;48511;38.664;-9.202;2022-08-27T04:53:27;100030.84;;;17.19;100.00
62462;BME280;48511;38.664;-9.202;2022-08-27T04:55:28;100036.84;;;17.21;100.00
62462;BME280;48511;38.664;-9.202;2022-08-27T04:57:28;100031.19;;;17.26;100.00
62462;BME280;48511;38.664;-9.202;2022-08-27T04:59:30;100032.03;;;17.27;100.00
62462;BME280;48511;38.664;-9.202;2022-08-27T05:01:31;100029.28;;;17.28;100.00
62462;BME280;48511;38.664;-9.202;2022-08-27T05:03:32;100021.50;;;17.27;100.00
62462;BME280;48511;38.664;-9.202;2022-08-27T05:05:33;100033.94;;;17.25;100.00
62462;BME280;48511;38.664;-9.202;2022-08-27T05:07:34;100037.53;;;17.24;100.00
62462;BME280;48511;38.664;-9.202;2022-08-27T05:09:34;100047.25;;;17.23;100.00
62462;BME280;48511;38.664;-9.202;2022-08-27T05:11:36;100047.31;;;17.33;100.00
62462;BME280;48511;38.664;-9.202;2022-08-27T05:13:37;100048.94;;;17.24;100.00
62462;BME280;48511;38.664;-9.202;2022-08-27T05:15:39;100045.31;;;17.25;100.00
62462;BME280;48511;38.664;-9.202;2022-08-27T05:17:40;100040.16;;;17.24;100.00
62462;BME280;48511;38.664;-9.202;2022-08-27T05:19:41;100047.94;;;17.25;100.00
62462;BME280;48511;38.664;-9.202;2022-08-27T05:21:46;100052.13;;;17.28;100.00
62462;BME280;48511;38.664;-9.202;2022-08-27T05:23:48;100056.44;;;17.29;100.00
62462;BME280;48511;38.664;-9.202;2022-08-27T05:25:50;100058.94;;;17.30;100.00
62462;BME280;48511;38.664;-9.202;2022-08-27T05:27:53;100060.88;;;17.28;100.00
62462;BME280;48511;38.664;-9.202;2022-08-27T05:29:54;100051.16;;;17.29;100.00
62462;BME280;48511;38.664;-9.202;2022-08-27T05:31:54;100063.38;;;17.30;100.00
62462;BME280;48511;38.664;-9.202;2022-08-27T05:33:56;100062.31;;;17.32;100.00
62462;BME280;48511;38.664;-9.202;2022-08-27T05:35:58;100061.47;;;17.32;100.00
62462;BME280;48511;38.664;-9.202;2022-08-27T05:38:00;100059.53;;;17.34;100.00
62462;BME280;48511;38.664;-9.202;2022-08-27T05:40:02;100062.78;;;17.37;100.00
62462;BME280;48511;38.664;-9.202;2022-08-27T05:42:03;100067.91;;;17.39;100.00
62462;BME280;48511;38.664;-9.202;2022-08-27T05:44:07;100067.78;;;17.41;100.00
62462;BME280;48511;38.664;-9.202;2022-08-27T05:46:14;100068.88;;;17.38;100.00
62462;BME280;48511;38.664;-9.202;2022-08-27T05:48:16;100067.91;;;17.39;100.00
62462;BME280;48511;38.664;-9.202;2022-08-27T05:50:17;100072.34;;;17.38;100.00
62462;BME280;48511;38.664;-9.202;2022-08-27T05:52:18;100072.34;;;17.38;100.00
62462;BME280;48511;38.664;-9.202;2022-08-27T05:54:19;100078.44;;;17.39;100.00
62462;BME280;48511;38.664;-9.202;2022-08-27T05:56:22;100080.94;;;17.41;100.00
62462;BME280;48511;38.664;-9.202;2022-08-27T05:58:23;100075.69;;;17.41;100.00
62462;BME280;48511;38.664;-9.202;2022-08-27T06:00:42;100086.69;;;17.46;100.00
62462;BME280;48511;38.664;-9.202;2022-08-27T06:03:01;100088.38;;;17.47;99.86
62462;BME280;48511;38.664;-9.202;2022-08-27T06:05:03;100081.53;;;17.44;99.71
62462;BME280;48511;38.664;-9.202;2022-08-27T06:07:04;100092.09;;;17.44;99.81
62462;BME280;48511;38.664;-9.202;2022-08-27T06:09:06;100087.66;;;17.45;99.66
62462;BME280;48511;38.664;-9.202;2022-08-27T06:11:07;100089.09;;;17.49;99.19
62462;BME280;48511;38.664;-9.202;2022-08-27T06:13:08;100093.75;;;17.45;98.74
62462;BME280;48511;38.664;-9.202;2022-08-27T06:15:10;100102.97;;;17.51;98.41
62462;BME280;48511;38.664;-9.202;2022-08-27T06:17:11;100099.84;;;17.46;98.42
62462;BME280;48511;38.664;-9.202;2022-08-27T06:19:11;100111.25;;;17.46;98.37
62462;BME280;48511;38.664;-9.202;2022-08-27T06:21:13;100113.50;;;17.51;98.52
62462;BME280;48511;38.664;-9.202;2022-08-27T06:23:14;100122.47;;;17.48;98.59
62462;BME280;48511;38.664;-9.202;2022-08-27T06:25:15;100118.91;;;17.49;98.84
62462;BME280;48511;38.664;-9.202;2022-08-27T06:27:17;100124.16;;;17.49;99.14
62462;BME280;48511;38.664;-9.202;2022-08-27T06:29:19;100114.59;;;17.48;98.90
62462;BME280;48511;38.664;-9.202;2022-08-27T06:31:25;100119.63;;;17.51;99.09
62462;BME280;48511;38.664;-9.202;2022-08-27T06:33:26;100115.56;;;17.47;99.42
62462;BME280;48511;38.664;-9.202;2022-08-27T06:35:27;100117.13;;;17.50;99.45
62462;BME280;48511;38.664;-9.202;2022-08-27T06:37:27;100112.94;;;17.47;99.63
62462;BME280;48511;38.664;-9.202;2022-08-27T06:39:30;100122.84;;;17.55;99.65
62462;BME280;48511;38.664;-9.202;2022-08-27T06:41:32;100118.28;;;17.57;99.70
62462;BME280;48511;38.664;-9.202;2022-08-27T06:43:35;100122.72;;;17.57;99.83
62462;BME280;48511;38.664;-9.202;2022-08-27T06:45:37;100126.06;;;17.59;99.92
62462;BME280;48511;38.664;-9.202;2022-08-27T06:47:38;100121.38;;;17.62;99.86
62462;BME280;48511;38.664;-9.202;2022-08-27T06:49:40;100121.38;;;17.62;100.00
62462;BME280;48511;38.664;-9.202;2022-08-27T06:51:44;100123.06;;;17.63;100.00
62462;BME280;48511;38.664;-9.202;2022-08-27T06:53:46;100127.72;;;17.60;99.71
62462;BME280;48511;38.664;-9.202;2022-08-27T06:55:48;100121.03;;;17.55;99.92
62462;BME280;48511;38.664;-9.202;2022-08-27T06:57:49;100121.78;;;17.58;100.00
62462;BME280;48511;38.664;-9.202;2022-08-27T06:59:50;100118.28;;;17.57;100.00
62462;BME280;48511;38.664;-9.202;2022-08-27T07:01:51;100121.66;;;17.59;100.00
62462;BME280;48511;38.664;-9.202;2022-08-27T07:03:53;100121.38;;;17.62;100.00
62462;BME280;48511;38.664;-9.202;2022-08-27T07:06:03;100111.56;;;17.64;100.00
62462;BME280;48511;38.664;-9.202;2022-08-27T07:08:05;100112.16;;;17.68;100.00
62462;BME280;48511;38.664;-9.202;2022-08-27T07:10:07;100112.88;;;17.70;100.00
62462;BME280;48511;38.664;-9.202;2022-08-27T07:12:08;100115.75;;;17.67;99.90
62462;BME280;48511;38.664;-9.202;2022-08-27T07:14:08;100115.03;;;17.65;100.00
62462;BME280;48511;38.664;-9.202;2022-08-27T07:16:12;100120.06;;;17.68;100.00
62462;BME280;48511;38.664;-9.202;2022-08-27T07:18:13;100119.00;;;17.70;100.00
62462;BME280;48511;38.664;-9.202;2022-08-27T07:20:15;100127.72;;;17.71;100.00
62462;BME280;48511;38.664;-9.202;2022-08-27T07:22:16;100127.03;;;17.69;99.68
62462;BME280;48511;38.664;-9.202;2022-08-27T07:24:17;100122.47;;;17.60;99.21
62462;BME280;48511;38.664;-9.202;2022-08-27T07:26:19;100122.94;;;17.53;99.90
62462;BME280;48511;38.664;-9.202;2022-08-27T07:28:21;100130.50;;;17.58;99.83
62462;BME280;48511;38.664;-9.202;2022-08-27T07:30:22;100126.06;;;17.59;100.00
62462;BME280;48511;38.664;-9.202;2022-08-27T07:32:22;100125.34;;;17.57;100.00
62462;BME280;48511;38.664;-9.202;2022-08-27T07:34:23;100123.09;;;17.52;99.83
62462;BME280;48511;38.664;-9.202;2022-08-27T07:36:24;100130.03;;;17.53;99.89
62462;BME280;48511;38.664;-9.202;2022-08-27T07:38:31;100124.41;;;17.58;100.00
62462;BME280;48511;38.664;-9.202;2022-08-27T07:40:32;100131.69;;;17.65;99.76
62462;BME280;48511;38.664;-9.202;2022-08-27T07:42:33;100141.16;;;17.68;99.61
62462;BME280;48511;38.664;-9.202;2022-08-27T07:44:53;100135.63;;;17.71;99.37
62462;BME280;48511;38.664;-9.202;2022-08-27T07:46:54;100136.22;;;17.75;99.40
62462;BME280;48511;38.664;-9.202;2022-08-27T07:48:56;100133.09;;;17.81;99.21
62462;BME280;48511;38.664;-9.202;2022-08-27T07:50:57;100133.56;;;17.86;98.99
62462;BME280;48511;38.664;-9.202;2022-08-27T07:52:58;100131.88;;;17.85;98.43
62462;BME280;48511;38.664;-9.202;2022-08-27T07:54:58;100131.53;;;17.78;98.86
62462;BME280;48511;38.664;-9.202;2022-08-27T07:56:59;100121.69;;;17.80;98.71
62462;BME280;48511;38.664;-9.202;2022-08-27T07:59:00;100130.06;;;17.85;98.69
62462;BME280;48511;38.664;-9.202;2022-08-27T08:01:01;100130.31;;;17.82;98.69
62462;BME280;48511;38.664;-9.202;2022-08-27T08:03:02;100130.06;;;17.85;98.63
62462;BME280;48511;38.664;-9.202;2022-08-27T08:05:04;100133.66;;;17.96;98.09
62462;BME280;48511;38.664;-9.202;2022-08-27T08:07:05;100126.25;;;17.90;97.74
62462;BME280;48511;38.664;-9.202;2022-08-27T08:09:06;100121.66;;;17.92;98.05
62462;BME280;48511;38.664;-9.202;2022-08-27T08:11:09;100132.00;;;17.95;98.00
62462;BME280;48511;38.664;-9.202;2022-08-27T08:13:10;100130.41;;;18.03;98.19
62462;BME280;48511;38.664;-9.202;2022-08-27T08:15:11;100132.66;;;18.08;97.95
62462;BME280;48511;38.664;-9.202;2022-08-27T08:17:12;100120.63;;;17.94;97.42
62462;BME280;48511;38.664;-9.202;2022-08-27T08:19:13;100130.53;;;18.02;97.63
62462;BME280;48511;38.664;-9.202;2022-08-27T08:21:14;100129.06;;;18.09;97.80
62462;BME280;48511;38.664;-9.202;2022-08-27T08:23:14;100137.31;;;18.16;97.22
62462;BME280;48511;38.664;-9.202;2022-08-27T08:25:16;100138.16;;;18.16;96.95
62462;BME280;48511;38.664;-9.202;2022-08-27T08:27:17;100136.44;;;18.27;97.06
62462;BME280;48511;38.664;-9.202;2022-08-27T08:29:18;100132.31;;;18.34;96.69
62462;BME280;48511;38.664;-9.202;2022-08-27T08:31:19;100142.63;;;18.37;95.88
62462;BME280;48511;38.664;-9.202;2022-08-27T08:33:21;100141.28;;;18.43;95.93
62462;BME280;48511;38.664;-9.202;2022-08-27T08:35:22;100144.22;;;18.49;95.63
62462;BME280;48511;38.664;-9.202;2022-08-27T08:37:23;100158.84;;;18.53;95.18
62462;BME280;48511;38.664;-9.202;2022-08-27T08:39:24;100149.84;;;18.56;94.95
62462;BME280;48511;38.664;-9.202;2022-08-27T08:43:41;100155.56;;;18.61;93.88
62462;BME280;48511;38.664;-9.202;2022-08-27T08:45:50;100158.09;;;18.63;93.97
62462;BME280;48511;38.664;-9.202;2022-08-27T08:48:14;100154.22;;;18.67;93.89
62462;BME280;48511;38.664;-9.202;2022-08-27T08:50:25;100145.34;;;18.68;93.47
62462;BME280;48511;38.664;-9.202;2022-08-27T08:54:55;100145.34;;;18.68;93.04
62462;BME280;48511;38.664;-9.202;2022-08-27T08:57:22;100154.47;;;18.64;92.75
62462;BME280;48511;38.664;-9.202;2022-08-27T09:01:25;100152.75;;;18.74;92.69
62462;BME280;48511;38.664;-9.202;2022-08-27T09:03:28;100159.44;;;18.78;92.16
62462;BME280;48511;38.664;-9.202;2022-08-27T09:05:29;100159.88;;;18.83;92.12
62462;BME280;48511;38.664;-9.202;2022-08-27T09:07:48;100160.53;;;18.97;90.29
62462;BME280;48511;38.664;-9.202;2022-08-27T09:10:19;100160.06;;;18.92;89.75
62462;BME280;48511;38.664;-9.202;2022-08-27T09:12:26;100165.50;;;18.90;90.09
62462;BME280;48511;38.664;-9.202;2022-08-27T09:14:36;100160.22;;;18.90;90.37
62462;BME280;48511;38.664;-9.202;2022-08-27T09:16:38;100163.16;;;18.97;90.32
62462;BME280;48511;38.664;-9.202;2022-08-27T09:18:40;100161.69;;;19.04;90.06
62462;BME280;48511;38.664;-9.202;2022-08-27T09:20:49;100161.16;;;19.10;89.97
62462;BME280;48511;38.664;-9.202;2022-08-27T09:23:01;100164.94;;;19.17;89.77
62462;BME280;48511;38.664;-9.202;2022-08-27T09:25:10;100157.63;;;19.31;89.37
62462;BME280;48511;38.664;-9.202;2022-08-27T09:27:13;100162.63;;;19.34;88.04
62462;BME280;48511;38.664;-9.202;2022-08-27T09:29:16;100161.28;;;19.49;87.78
62462;BME280;48511;38.664;-9.202;2022-08-27T09:31:20;100160.50;;;19.59;86.64
62462;BME280;48511;38.664;-9.202;2022-08-27T09:33:21;100171.66;;;19.72;85.87
62462;BME280;48511;38.664;-9.202;2022-08-27T09:35:24;100172.00;;;19.89;85.28
62462;BME280;48511;38.664;-9.202;2022-08-27T09:37:31;100172.84;;;19.99;84.06
62462;BME280;48511;38.664;-9.202;2022-08-27T09:42:26;100175.13;;;20.33;82.02
62462;BME280;48511;38.664;-9.202;2022-08-27T09:44:29;100176.78;;;20.54;78.23
62462;BME280;48511;38.664;-9.202;2022-08-27T09:46:32;100180.66;;;20.49;78.46
62462;BME280;48511;38.664;-9.202;2022-08-27T09:48:35;100189.31;;;20.71;78.66
62462;BME280;48511;38.664;-9.202;2022-08-27T09:50:40;100180.34;;;20.92;78.02
62462;BME280;48511;38.664;-9.202;2022-08-27T09:52:54;100187.22;;;21.22;76.63
62462;BME280;48511;38.664;-9.202;2022-08-27T09:54:55;100185.34;;;21.42;74.40
62462;BME280;48511;38.664;-9.202;2022-08-27T09:56:57;100187.03;;;21.71;74.20
62462;BME280;48511;38.664;-9.202;2022-08-27T09:59:19;100180.41;;;22.03;71.40
62462;BME280;48511;38.664;-9.202;2022-08-27T10:01:29;100173.50;;;22.28;70.04
62462;BME280;48511;38.664;-9.202;2022-08-27T10:03:30;100175.13;;;22.39;69.40
62462;BME280;48511;38.664;-9.202;2022-08-27T10:05:37;100175.63;;;22.61;68.02
62462;BME280;48511;38.664;-9.202;2022-08-27T10:07:48;100182.09;;;22.85;66.30
62462;BME280;48511;38.664;-9.202;2022-08-27T10:10:19;100177.31;;;23.15;65.83
62462;BME280;48511;38.664;-9.202;2022-08-27T10:12:26;100180.25;;;23.38;64.25
62462;BME280;48511;38.664;-9.202;2022-08-27T10:14:41;100174.47;;;23.51;63.23
62462;BME280;48511;38.664;-9.202;2022-08-27T10:16:58;100174.28;;;23.09;62.80
62462;BME280;48511;38.664;-9.202;2022-08-27T10:21:34;100183.69;;;23.22;62.66
62462;BME280;48511;38.664;-9.202;2022-08-27T10:23:55;100181.84;;;23.22;62.92
62462;BME280;48511;38.664;-9.202;2022-08-27T10:26:18;100182.38;;;23.26;62.22
62462;BME280;48511;38.664;-9.202;2022-08-27T10:28:40;100185.38;;;23.31;61.87
62462;BME280;48511;38.664;-9.202;2022-08-27T10:38:37;100179.09;;;23.40;62.70
62462;BME280;48511;38.664;-9.202;2022-08-27T10:45:51;100171.31;;;22.86;65.61
62462;BME280;48511;38.664;-9.202;2022-08-27T10:50:07;100178.84;;;22.91;65.40
62462;BME280;48511;38.664;-9.202;2022-08-27T10:52:18;100173.19;;;22.94;65.31
62462;BME280;48511;38.664;-9.202;2022-08-27T10:54:34;100176.84;;;22.93;65.13
62462;BME280;48511;38.664;-9.202;2022-08-27T10:56:43;100178.84;;;22.91;64.89
62462;BME280;48511;38.664;-9.202;2022-08-27T11:03:12;100170.06;;;22.99;63.92
62462;BME280;48511;38.664;-9.202;2022-08-27T11:05:34;100168.25;;;22.99;63.49
62462;BME280;48511;38.664;-9.202;2022-08-27T11:07:40;100172.25;;;23.03;63.59
62462;BME280;48511;38.664;-9.202;2022-08-27T11:09:48;100171.63;;;23.09;63.91
62462;BME280;48511;38.664;-9.202;2022-08-27T11:11:56;100178.38;;;23.30;63.45